sensor_id;sensor_type;location;lat;lon;timestamp;P1;durP1;ratioP1;P2;durP2;ratioP2
37115;SDS011;23025;41.996;23.098;2023-03-13T00:00:50;0.90;;;0.90;;
37115;SDS011;23025;41.996;23.098;2023-03-13T00:03:18;1.95;;;1.85;;
37115;SDS011;23025;41.996;23.098;2023-03-13T00:05:44;1.20;;;1.10;;
37115;SDS011;23025;41.996;23.098;2023-03-13T00:08:11;1.00;;;1.00;;
37115;SDS011;23025;41.996;23.098;2023-03-13T00:10:38;1.75;;;1.48;;
37115;SDS011;23025;41.996;23.098;2023-03-13T00:13:04;0.60;;;0.60;;
37115;SDS011;23025;41.996;23.098;2023-03-13T00:15:31;1.42;;;1.33;;
37115;SDS011;23025;41.996;23.098;2023-03-13T00:17:57;0.75;;;0.75;;
37115;SDS011;23025;41.996;23.098;2023-03-13T00:20:25;5.40;;;5.20;;
37115;SDS011;23025;41.996;23.098;2023-03-13T00:22:52;2.17;;;2.08;;
37115;SDS011;23025;41.996;23.098;2023-03-13T00:25:18;3.40;;;3.30;;
37115;SDS011;23025;41.996;23.098;2023-03-13T00:27:45;0.47;;;0.47;;
37115;SDS011;23025;41.996;23.098;2023-03-13T00:30:11;0.63;;;0.63;;
37115;SDS011;23025;41.996;23.098;2023-03-13T00:32:39;0.70;;;0.70;;
37115;SDS011;23025;41.996;23.098;2023-03-13T00:35:06;0.73;;;0.73;;
37115;SDS011;23025;41.996;23.098;2023-03-13T00:37:34;0.60;;;0.60;;
37115;SDS011;23025;41.996;23.098;2023-03-13T00:40:00;2.92;;;2.83;;
37115;SDS011;23025;41.996;23.098;2023-03-13T00:42:28;0.47;;;0.47;;
37115;SDS011;23025;41.996;23.098;2023-03-13T00:44:54;0.65;;;0.65;;
37115;SDS011;23025;41.996;23.098;2023-03-13T00:47:21;0.32;;;0.32;;
37115;SDS011;23025;41.996;23.098;2023-03-13T00:49:47;0.88;;;0.88;;
37115;SDS011;23025;41.996;23.098;2023-03-13T00:52:14;0.77;;;0.77;;
37115;SDS011;23025;41.996;23.098;2023-03-13T00:54:42;0.55;;;0.55;;
37115;SDS011;23025;41.996;23.098;2023-03-13T00:57:08;1.05;;;1.05;;
37115;SDS011;23025;41.996;23.098;2023-03-13T00:59:35;0.75;;;0.75;;
37115;SDS011;23025;41.996;23.098;2023-03-13T01:02:01;0.70;;;0.70;;
37115;SDS011;23025;41.996;23.098;2023-03-13T01:04:28;2.47;;;1.83;;
37115;SDS011;23025;41.996;23.098;2023-03-13T01:06:54;0.68;;;0.68;;
37115;SDS011;23025;41.996;23.098;2023-03-13T01:09:21;0.90;;;0.90;;
37115;SDS011;23025;41.996;23.098;2023-03-13T01:11:49;0.35;;;0.35;;
37115;SDS011;23025;41.996;23.098;2023-03-13T01:14:16;0.90;;;0.90;;
37115;SDS011;23025;41.996;23.098;2023-03-13T01:16:43;1.10;;;1.10;;
37115;SDS011;23025;41.996;23.098;2023-03-13T01:19:10;1.40;;;1.30;;
37115;SDS011;23025;41.996;23.098;2023-03-13T01:21:37;1.55;;;1.45;;
37115;SDS011;23025;41.996;23.098;2023-03-13T01:24:04;0.82;;;0.82;;
37115;SDS011;23025;41.996;23.098;2023-03-13T01:26:30;0.82;;;0.82;;
37115;SDS011;23025;41.996;23.098;2023-03-13T01:28:58;0.65;;;0.65;;
37115;SDS011;23025;41.996;23.098;2023-03-13T01:31:26;1.58;;;1.48;;
37115;SDS011;23025;41.996;23.098;2023-03-13T01:33:54;0.55;;;0.55;;
37115;SDS011;23025;41.996;23.098;2023-03-13T01:36:20;0.55;;;0.52;;
37115;SDS011;23025;41.996;23.098;2023-03-13T01:38:47;1.35;;;1.25;;
37115;SDS011;23025;41.996;23.098;2023-03-13T01:41:14;1.50;;;1.45;;
37115;SDS011;23025;41.996;23.098;2023-03-13T01:43:40;0.68;;;0.68;;
37115;SDS011;23025;41.996;23.098;2023-03-13T01:46:13;1.00;;;0.93;;
37115;SDS011;23025;41.996;23.098;2023-03-13T01:48:46;1.30;;;1.30;;
37115;SDS011;23025;41.996;23.098;2023-03-13T01:51:15;0.70;;;0.70;;
37115;SDS011;23025;41.996;23.098;2023-03-13T01:53:44;1.55;;;1.45;;
37115;SDS011;23025;41.996;23.098;2023-03-13T01:56:13;1.40;;;1.35;;
37115;SDS011;23025;41.996;23.098;2023-03-13T01:58:42;0.65;;;0.65;;
37115;SDS011;23025;41.996;23.098;2023-03-13T02:01:08;1.33;;;1.30;;
37115;SDS011;23025;41.996;23.098;2023-03-13T02:03:37;0.90;;;0.90;;
37115;SDS011;23025;41.996;23.098;2023-03-13T02:06:04;1.80;;;1.70;;
37115;SDS011;23025;41.996;23.098;2023-03-13T02:08:31;0.90;;;0.90;;
37115;SDS011;23025;41.996;23.098;2023-03-13T02:11:03;0.88;;;0.88;;
37115;SDS011;23025;41.996;23.098;2023-03-13T02:13:30;0.82;;;0.82;;
37115;SDS011;23025;41.996;23.098;2023-03-13T02:15:57;0.80;;;0.80;;
37115;SDS011;23025;41.996;23.098;2023-03-13T02:18:24;0.38;;;0.35;;
37115;SDS011;23025;41.996;23.098;2023-03-13T02:20:52;1.67;;;1.27;;
37115;SDS011;23025;41.996;23.098;2023-03-13T02:23:23;1.42;;;1.38;;
37115;SDS011;23025;41.996;23.098;2023-03-13T02:25:54;1.52;;;1.42;;
37115;SDS011;23025;41.996;23.098;2023-03-13T02:28:22;1.40;;;1.30;;
37115;SDS011;23025;41.996;23.098;2023-03-13T02:30:50;0.68;;;0.68;;
37115;SDS011;23025;41.996;23.098;2023-03-13T02:33:17;1.25;;;1.15;;
37115;SDS011;23025;41.996;23.098;2023-03-13T02:35:44;0.55;;;0.55;;
37115;SDS011;23025;41.996;23.098;2023-03-13T02:38:12;1.60;;;1.50;;
37115;SDS011;23025;41.996;23.098;2023-03-13T02:40:40;0.77;;;0.70;;
37115;SDS011;23025;41.996;23.098;2023-03-13T02:43:09;4.28;;;1.88;;
37115;SDS011;23025;41.996;23.098;2023-03-13T02:45:37;1.33;;;1.23;;
37115;SDS011;23025;41.996;23.098;2023-03-13T02:48:03;3.80;;;3.60;;
37115;SDS011;23025;41.996;23.098;2023-03-13T02:50:30;1.20;;;1.20;;
37115;SDS011;23025;41.996;23.098;2023-03-13T02:52:58;0.73;;;0.73;;
37115;SDS011;23025;41.996;23.098;2023-03-13T02:55:27;1.58;;;1.48;;
37115;SDS011;23025;41.996;23.098;2023-03-13T02:57:54;0.85;;;0.85;;
37115;SDS011;23025;41.996;23.098;2023-03-13T03:00:22;1.13;;;1.05;;
37115;SDS011;23025;41.996;23.098;2023-03-13T03:02:50;1.90;;;1.80;;
37115;SDS011;23025;41.996;23.098;2023-03-13T03:05:18;0.85;;;0.85;;
37115;SDS011;23025;41.996;23.098;2023-03-13T03:07:46;0.73;;;0.73;;
37115;SDS011;23025;41.996;23.098;2023-03-13T03:10:12;1.92;;;1.80;;
37115;SDS011;23025;41.996;23.098;2023-03-13T03:12:39;0.60;;;0.60;;
37115;SDS011;23025;41.996;23.098;2023-03-13T03:15:06;1.00;;;1.00;;
37115;SDS011;23025;41.996;23.098;2023-03-13T03:17:34;1.27;;;1.17;;
37115;SDS011;23025;41.996;23.098;2023-03-13T03:20:01;0.95;;;0.95;;
37115;SDS011;23025;41.996;23.098;2023-03-13T03:22:28;0.75;;;0.73;;
37115;SDS011;23025;41.996;23.098;2023-03-13T03:24:55;0.63;;;0.63;;
37115;SDS011;23025;41.996;23.098;2023-03-13T03:27:21;1.48;;;1.40;;
37115;SDS011;23025;41.996;23.098;2023-03-13T03:29:48;1.58;;;1.48;;
37115;SDS011;23025;41.996;23.098;2023-03-13T03:32:14;1.98;;;1.88;;
37115;SDS011;23025;41.996;23.098;2023-03-13T03:34:42;1.38;;;1.33;;
37115;SDS011;23025;41.996;23.098;2023-03-13T03:37:09;0.60;;;0.60;;
37115;SDS011;23025;41.996;23.098;2023-03-13T03:39:35;2.03;;;1.92;;
37115;SDS011;23025;41.996;23.098;2023-03-13T03:42:02;0.82;;;0.82;;
37115;SDS011;23025;41.996;23.098;2023-03-13T03:44:28;1.33;;;1.23;;
37115;SDS011;23025;41.996;23.098;2023-03-13T03:46:55;0.80;;;0.77;;
37115;SDS011;23025;41.996;23.098;2023-03-13T03:49:21;1.05;;;1.05;;
37115;SDS011;23025;41.996;23.098;2023-03-13T03:51:49;3.80;;;3.63;;
37115;SDS011;23025;41.996;23.098;2023-03-13T03:54:16;0.95;;;0.95;;
37115;SDS011;23025;41.996;23.098;2023-03-13T03:56:42;1.55;;;1.00;;
37115;SDS011;23025;41.996;23.098;2023-03-13T03:59:09;1.95;;;1.85;;
37115;SDS011;23025;41.996;23.098;2023-03-13T04:01:35;2.03;;;1.92;;
37115;SDS011;23025;41.996;23.098;2023-03-13T04:04:02;1.23;;;1.20;;
37115;SDS011;23025;41.996;23.098;2023-03-13T04:06:28;0.60;;;0.60;;
37115;SDS011;23025;41.996;23.098;2023-03-13T04:08:56;1.25;;;1.15;;
37115;SDS011;23025;41.996;23.098;2023-03-13T04:11:23;0.95;;;0.95;;
37115;SDS011;23025;41.996;23.098;2023-03-13T04:13:49;0.80;;;0.80;;
37115;SDS011;23025;41.996;23.098;2023-03-13T04:16:16;0.65;;;0.65;;
37115;SDS011;23025;41.996;23.098;2023-03-13T04:18:42;0.47;;;0.47;;
37115;SDS011;23025;41.996;23.098;2023-03-13T04:21:09;3.40;;;3.30;;
37115;SDS011;23025;41.996;23.098;2023-03-13T04:23:35;2.53;;;1.58;;
37115;SDS011;23025;41.996;23.098;2023-03-13T04:26:03;0.63;;;0.63;;
37115;SDS011;23025;41.996;23.098;2023-03-13T04:28:30;0.85;;;0.85;;
37115;SDS011;23025;41.996;23.098;2023-03-13T04:30:56;0.68;;;0.68;;
37115;SDS011;23025;41.996;23.098;2023-03-13T04:33:23;0.90;;;0.90;;
37115;SDS011;23025;41.996;23.098;2023-03-13T04:35:49;1.58;;;1.48;;
37115;SDS011;23025;41.996;23.098;2023-03-13T04:38:16;1.70;;;1.35;;
37115;SDS011;23025;41.996;23.098;2023-03-13T04:40:42;0.88;;;0.88;;
37115;SDS011;23025;41.996;23.098;2023-03-13T04:43:10;1.27;;;1.27;;
37115;SDS011;23025;41.996;23.098;2023-03-13T04:45:37;0.57;;;0.57;;
37115;SDS011;23025;41.996;23.098;2023-03-13T04:48:03;1.48;;;1.38;;
37115;SDS011;23025;41.996;23.098;2023-03-13T04:50:30;0.70;;;0.70;;
37115;SDS011;23025;41.996;23.098;2023-03-13T04:52:56;1.15;;;1.15;;
37115;SDS011;23025;41.996;23.098;2023-03-13T04:55:23;0.80;;;0.80;;
37115;SDS011;23025;41.996;23.098;2023-03-13T04:57:49;1.48;;;1.45;;
37115;SDS011;23025;41.996;23.098;2023-03-13T05:00:17;0.47;;;0.38;;
37115;SDS011;23025;41.996;23.098;2023-03-13T05:02:44;0.77;;;0.77;;
37115;SDS011;23025;41.996;23.098;2023-03-13T05:05:10;2.42;;;2.33;;
37115;SDS011;23025;41.996;23.098;2023-03-13T05:07:37;0.70;;;0.70;;
37115;SDS011;23025;41.996;23.098;2023-03-13T05:10:03;1.08;;;1.02;;
37115;SDS011;23025;41.996;23.098;2023-03-13T05:12:30;0.93;;;0.93;;
37115;SDS011;23025;41.996;23.098;2023-03-13T05:14:57;1.38;;;1.27;;
37115;SDS011;23025;41.996;23.098;2023-03-13T05:17:24;4.78;;;1.83;;
37115;SDS011;23025;41.996;23.098;2023-03-13T05:19:51;1.75;;;1.65;;
37115;SDS011;23025;41.996;23.098;2023-03-13T05:22:17;1.00;;;1.00;;
37115;SDS011;23025;41.996;23.098;2023-03-13T05:24:44;0.90;;;0.90;;
37115;SDS011;23025;41.996;23.098;2023-03-13T05:27:10;1.52;;;1.42;;
37115;SDS011;23025;41.996;23.098;2023-03-13T05:29:37;0.80;;;0.80;;
37115;SDS011;23025;41.996;23.098;2023-03-13T05:32:03;1.23;;;1.15;;
37115;SDS011;23025;41.996;23.098;2023-03-13T05:34:31;0.77;;;0.77;;
37115;SDS011;23025;41.996;23.098;2023-03-13T05:36:58;1.80;;;1.70;;
37115;SDS011;23025;41.996;23.098;2023-03-13T05:39:24;1.33;;;1.25;;
37115;SDS011;23025;41.996;23.098;2023-03-13T05:41:51;1.33;;;1.25;;
37115;SDS011;23025;41.996;23.098;2023-03-13T05:44:17;0.82;;;0.82;;
37115;SDS011;23025;41.996;23.098;2023-03-13T05:46:44;1.42;;;1.33;;
37115;SDS011;23025;41.996;23.098;2023-03-13T05:49:10;1.02;;;1.02;;
37115;SDS011;23025;41.996;23.098;2023-03-13T05:51:38;0.68;;;0.68;;
37115;SDS011;23025;41.996;23.098;2023-03-13T05:54:04;0.93;;;0.90;;
37115;SDS011;23025;41.996;23.098;2023-03-13T05:56:31;1.08;;;1.08;;
37115;SDS011;23025;41.996;23.098;2023-03-13T05:58:57;0.85;;;0.85;;
37115;SDS011;23025;41.996;23.098;2023-03-13T06:01:24;0.85;;;0.85;;
37115;SDS011;23025;41.996;23.098;2023-03-13T06:03:50;1.08;;;0.98;;
37115;SDS011;23025;41.996;23.098;2023-03-13T06:06:17;1.75;;;1.65;;
37115;SDS011;23025;41.996;23.098;2023-03-13T06:08:45;3.58;;;3.38;;
37115;SDS011;23025;41.996;23.098;2023-03-13T06:11:11;1.98;;;1.88;;
37115;SDS011;23025;41.996;23.098;2023-03-13T06:13:38;2.17;;;2.08;;
37115;SDS011;23025;41.996;23.098;2023-03-13T06:16:05;2.67;;;2.47;;
37115;SDS011;23025;41.996;23.098;2023-03-13T06:18:31;2.88;;;2.67;;
37115;SDS011;23025;41.996;23.098;2023-03-13T06:20:59;2.75;;;2.55;;
37115;SDS011;23025;41.996;23.098;2023-03-13T06:23:26;1.65;;;1.55;;
37115;SDS011;23025;41.996;23.098;2023-03-13T06:25:54;2.05;;;1.95;;
37115;SDS011;23025;41.996;23.098;2023-03-13T06:28:20;1.25;;;1.15;;
37115;SDS011;23025;41.996;23.098;2023-03-13T06:30:47;3.80;;;3.53;;
37115;SDS011;23025;41.996;23.098;2023-03-13T06:33:13;2.92;;;2.67;;
37115;SDS011;23025;41.996;23.098;2023-03-13T06:35:40;2.08;;;1.80;;
37115;SDS011;23025;41.996;23.098;2023-03-13T06:38:07;2.35;;;2.25;;
37115;SDS011;23025;41.996;23.098;2023-03-13T06:40:34;1.52;;;1.42;;
37115;SDS011;23025;41.996;23.098;2023-03-13T06:43:02;1.40;;;1.33;;
37115;SDS011;23025;41.996;23.098;2023-03-13T06:45:28;1.92;;;1.83;;
37115;SDS011;23025;41.996;23.098;2023-03-13T06:47:55;2.97;;;2.78;;
37115;SDS011;23025;41.996;23.098;2023-03-13T06:50:21;1.88;;;1.77;;
37115;SDS011;23025;41.996;23.098;2023-03-13T06:52:48;7.38;;;3.22;;
37115;SDS011;23025;41.996;23.098;2023-03-13T06:55:14;2.22;;;2.13;;
37115;SDS011;23025;41.996;23.098;2023-03-13T06:57:41;1.08;;;1.08;;
37115;SDS011;23025;41.996;23.098;2023-03-13T07:00:13;2.63;;;2.50;;
37115;SDS011;23025;41.996;23.098;2023-03-13T07:02:40;0.88;;;0.88;;
37115;SDS011;23025;41.996;23.098;2023-03-13T07:05:07;2.63;;;1.77;;
37115;SDS011;23025;41.996;23.098;2023-03-13T07:07:33;1.60;;;1.50;;
37115;SDS011;23025;41.996;23.098;2023-03-13T07:10:00;5.80;;;5.57;;
37115;SDS011;23025;41.996;23.098;2023-03-13T07:12:27;3.97;;;3.75;;
37115;SDS011;23025;41.996;23.098;2023-03-13T07:14:53;2.03;;;1.77;;
37115;SDS011;23025;41.996;23.098;2023-03-13T07:17:21;2.47;;;1.98;;
37115;SDS011;23025;41.996;23.098;2023-03-13T07:19:48;1.70;;;1.60;;
37115;SDS011;23025;41.996;23.098;2023-03-13T07:22:14;3.08;;;2.85;;
37115;SDS011;23025;41.996;23.098;2023-03-13T07:24:41;2.97;;;2.80;;
37115;SDS011;23025;41.996;23.098;2023-03-13T07:27:07;2.10;;;1.90;;
37115;SDS011;23025;41.996;23.098;2023-03-13T07:29:34;1.88;;;1.58;;
37115;SDS011;23025;41.996;23.098;2023-03-13T07:32:00;2.03;;;1.92;;
37115;SDS011;23025;41.996;23.098;2023-03-13T07:34:28;3.33;;;3.17;;
37115;SDS011;23025;41.996;23.098;2023-03-13T07:36:55;2.78;;;2.67;;
37115;SDS011;23025;41.996;23.098;2023-03-13T07:39:21;3.08;;;2.78;;
37115;SDS011;23025;41.996;23.098;2023-03-13T07:41:48;2.40;;;2.17;;
37115;SDS011;23025;41.996;23.098;2023-03-13T07:44:14;2.50;;;2.33;;
37115;SDS011;23025;41.996;23.098;2023-03-13T07:46:41;3.55;;;3.35;;
37115;SDS011;23025;41.996;23.098;2023-03-13T07:49:07;2.58;;;2.45;;
37115;SDS011;23025;41.996;23.098;2023-03-13T07:51:35;4.95;;;4.10;;
37115;SDS011;23025;41.996;23.098;2023-03-13T07:54:02;2.08;;;1.95;;
37115;SDS011;23025;41.996;23.098;2023-03-13T07:56:28;4.18;;;2.10;;
37115;SDS011;23025;41.996;23.098;2023-03-13T07:58:55;1.95;;;1.85;;
37115;SDS011;23025;41.996;23.098;2023-03-13T08:01:22;1.40;;;1.35;;
37115;SDS011;23025;41.996;23.098;2023-03-13T08:03:49;3.30;;;3.08;;
37115;SDS011;23025;41.996;23.098;2023-03-13T08:06:16;3.60;;;3.45;;
37115;SDS011;23025;41.996;23.098;2023-03-13T08:08:45;1.77;;;1.67;;
37115;SDS011;23025;41.996;23.098;2023-03-13T08:11:12;3.35;;;3.15;;
37115;SDS011;23025;41.996;23.098;2023-03-13T08:13:40;2.95;;;2.78;;
37115;SDS011;23025;41.996;23.098;2023-03-13T08:16:07;3.53;;;3.33;;
37115;SDS011;23025;41.996;23.098;2023-03-13T08:18:34;2.22;;;2.13;;
37115;SDS011;23025;41.996;23.098;2023-03-13T08:21:02;2.38;;;2.25;;
37115;SDS011;23025;41.996;23.098;2023-03-13T08:23:28;2.40;;;2.30;;
37115;SDS011;23025;41.996;23.098;2023-03-13T08:25:56;2.15;;;2.05;;
37115;SDS011;23025;41.996;23.098;2023-03-13T08:28:26;3.33;;;3.13;;
37115;SDS011;23025;41.996;23.098;2023-03-13T08:30:53;4.35;;;4.15;;
37115;SDS011;23025;41.996;23.098;2023-03-13T08:33:19;3.15;;;2.88;;
37115;SDS011;23025;41.996;23.098;2023-03-13T08:35:46;5.25;;;3.85;;
37115;SDS011;23025;41.996;23.098;2023-03-13T08:38:12;7.35;;;3.08;;
37115;SDS011;23025;41.996;23.098;2023-03-13T08:40:39;4.80;;;4.60;;
37115;SDS011;23025;41.996;23.098;2023-03-13T08:43:07;3.17;;;2.80;;
37115;SDS011;23025;41.996;23.098;2023-03-13T08:45:33;3.80;;;3.60;;
37115;SDS011;23025;41.996;23.098;2023-03-13T08:48:00;5.13;;;4.88;;
37115;SDS011;23025;41.996;23.098;2023-03-13T08:50:26;4.40;;;4.10;;
37115;SDS011;23025;41.996;23.098;2023-03-13T08:52:53;9.02;;;8.18;;
37115;SDS011;23025;41.996;23.098;2023-03-13T08:55:19;5.13;;;4.90;;
37115;SDS011;23025;41.996;23.098;2023-03-13T08:57:46;6.95;;;6.65;;
37115;SDS011;23025;41.996;23.098;2023-03-13T09:00:14;5.57;;;5.38;;
37115;SDS011;23025;41.996;23.098;2023-03-13T09:02:42;2.83;;;2.70;;
37115;SDS011;23025;41.996;23.098;2023-03-13T09:05:09;6.63;;;6.32;;
37115;SDS011;23025;41.996;23.098;2023-03-13T09:07:35;3.60;;;3.40;;
37115;SDS011;23025;41.996;23.098;2023-03-13T09:10:03;3.35;;;3.22;;
37115;SDS011;23025;41.996;23.098;2023-03-13T09:12:29;4.30;;;4.10;;
37115;SDS011;23025;41.996;23.098;2023-03-13T09:14:56;3.65;;;3.45;;
37115;SDS011;23025;41.996;23.098;2023-03-13T09:17:24;4.13;;;3.72;;
37115;SDS011;23025;41.996;23.098;2023-03-13T09:19:51;3.58;;;3.28;;
37115;SDS011;23025;41.996;23.098;2023-03-13T09:22:17;7.90;;;7.50;;
37115;SDS011;23025;41.996;23.098;2023-03-13T09:24:44;4.47;;;4.28;;
37115;SDS011;23025;41.996;23.098;2023-03-13T09:27:10;8.38;;;3.78;;
37115;SDS011;23025;41.996;23.098;2023-03-13T09:29:37;3.33;;;3.13;;
37115;SDS011;23025;41.996;23.098;2023-03-13T09:32:05;3.47;;;3.25;;
37115;SDS011;23025;41.996;23.098;2023-03-13T09:34:33;4.25;;;4.05;;
37115;SDS011;23025;41.996;23.098;2023-03-13T09:37:00;3.47;;;3.28;;
37115;SDS011;23025;41.996;23.098;2023-03-13T09:39:26;5.38;;;3.15;;
37115;SDS011;23025;41.996;23.098;2023-03-13T09:41:53;3.72;;;3.53;;
37115;SDS011;23025;41.996;23.098;2023-03-13T09:44:23;4.43;;;4.20;;
37115;SDS011;23025;41.996;23.098;2023-03-13T09:46:54;6.10;;;5.78;;
37115;SDS011;23025;41.996;23.098;2023-03-13T09:49:28;4.10;;;3.70;;
37115;SDS011;23025;41.996;23.098;2023-03-13T09:51:59;4.63;;;4.43;;
37115;SDS011;23025;41.996;23.098;2023-03-13T09:54:27;4.50;;;4.25;;
37115;SDS011;23025;41.996;23.098;2023-03-13T09:56:56;4.63;;;4.43;;
37115;SDS011;23025;41.996;23.098;2023-03-13T09:59:26;5.63;;;5.22;;
37115;SDS011;23025;41.996;23.098;2023-03-13T10:01:54;3.72;;;3.53;;
37115;SDS011;23025;41.996;23.098;2023-03-13T10:04:26;4.28;;;4.07;;
37115;SDS011;23025;41.996;23.098;2023-03-13T10:06:53;3.95;;;3.63;;
37115;SDS011;23025;41.996;23.098;2023-03-13T10:09:22;4.60;;;4.28;;
37115;SDS011;23025;41.996;23.098;2023-03-13T10:11:52;5.22;;;4.93;;
37115;SDS011;23025;41.996;23.098;2023-03-13T10:14:21;3.17;;;2.97;;
37115;SDS011;23025;41.996;23.098;2023-03-13T10:16:53;5.93;;;5.63;;
37115;SDS011;23025;41.996;23.098;2023-03-13T10:19:22;6.50;;;6.18;;
37115;SDS011;23025;41.996;23.098;2023-03-13T10:21:52;4.57;;;4.35;;
37115;SDS011;23025;41.996;23.098;2023-03-13T10:24:22;6.07;;;4.43;;
37115;SDS011;23025;41.996;23.098;2023-03-13T10:26:55;4.78;;;4.47;;
37115;SDS011;23025;41.996;23.098;2023-03-13T10:29:22;6.00;;;5.68;;
37115;SDS011;23025;41.996;23.098;2023-03-13T10:31:52;4.70;;;4.40;;
37115;SDS011;23025;41.996;23.098;2023-03-13T10:34:20;6.35;;;6.07;;
37115;SDS011;23025;41.996;23.098;2023-03-13T10:36:47;5.70;;;5.40;;
37115;SDS011;23025;41.996;23.098;2023-03-13T10:39:15;4.32;;;4.03;;
37115;SDS011;23025;41.996;23.098;2023-03-13T10:41:42;3.40;;;3.28;;
37115;SDS011;23025;41.996;23.098;2023-03-13T10:44:15;7.15;;;6.65;;
37115;SDS011;23025;41.996;23.098;2023-03-13T10:46:42;4.47;;;4.25;;
37115;SDS011;23025;41.996;23.098;2023-03-13T10:49:12;5.47;;;5.18;;
37115;SDS011;23025;41.996;23.098;2023-03-13T10:51:40;5.47;;;5.18;;
37115;SDS011;23025;41.996;23.098;2023-03-13T10:54:13;7.13;;;6.75;;
37115;SDS011;23025;41.996;23.098;2023-03-13T10:56:40;4.97;;;4.47;;
37115;SDS011;23025;41.996;23.098;2023-03-13T10:59:18;4.32;;;4.13;;
37115;SDS011;23025;41.996;23.098;2023-03-13T11:01:45;4.90;;;4.60;;
37115;SDS011;23025;41.996;23.098;2023-03-13T11:04:20;6.70;;;6.30;;
37115;SDS011;23025;41.996;23.098;2023-03-13T11:06:49;6.70;;;6.30;;
37115;SDS011;23025;41.996;23.098;2023-03-13T11:09:16;4.82;;;4.60;;
37115;SDS011;23025;41.996;23.098;2023-03-13T11:11:44;4.63;;;4.40;;
37115;SDS011;23025;41.996;23.098;2023-03-13T11:14:15;5.00;;;4.78;;
37115;SDS011;23025;41.996;23.098;2023-03-13T11:19:18;3.80;;;3.60;;
37115;SDS011;23025;41.996;23.098;2023-03-13T11:21:52;4.88;;;4.57;;
37115;SDS011;23025;41.996;23.098;2023-03-13T11:24:22;10.13;;;9.68;;
37115;SDS011;23025;41.996;23.098;2023-03-13T11:26:51;7.60;;;5.25;;
37115;SDS011;23025;41.996;23.098;2023-03-13T11:29:22;5.28;;;5.05;;
37115;SDS011;23025;41.996;23.098;2023-03-13T11:31:53;3.72;;;3.53;;
37115;SDS011;23025;41.996;23.098;2023-03-13T11:34:23;4.05;;;3.83;;
37115;SDS011;23025;41.996;23.098;2023-03-13T11:36:52;6.55;;;6.15;;
37115;SDS011;23025;41.996;23.098;2023-03-13T11:39:32;6.97;;;6.65;;
37115;SDS011;23025;41.996;23.098;2023-03-13T11:42:02;5.25;;;4.03;;
37115;SDS011;23025;41.996;23.098;2023-03-13T11:44:35;6.00;;;5.70;;
37115;SDS011;23025;41.996;23.098;2023-03-13T11:47:31;6.50;;;6.20;;
37115;SDS011;23025;41.996;23.098;2023-03-13T11:50:13;6.43;;;6.13;;
37115;SDS011;23025;41.996;23.098;2023-03-13T11:52:42;5.15;;;4.25;;
37115;SDS011;23025;41.996;23.098;2023-03-13T11:55:15;7.57;;;7.20;;
37115;SDS011;23025;41.996;23.098;2023-03-13T11:57:46;7.75;;;7.35;;
37115;SDS011;23025;41.996;23.098;2023-03-13T12:00:21;7.10;;;6.78;;
37115;SDS011;23025;41.996;23.098;2023-03-13T12:02:50;6.75;;;6.45;;
37115;SDS011;23025;41.996;23.098;2023-03-13T12:05:20;4.28;;;3.97;;
37115;SDS011;23025;41.996;23.098;2023-03-13T12:07:49;7.60;;;7.30;;
37115;SDS011;23025;41.996;23.098;2023-03-13T12:10:18;5.03;;;4.65;;
37115;SDS011;23025;41.996;23.098;2023-03-13T12:12:48;6.20;;;5.90;;
37115;SDS011;23025;41.996;23.098;2023-03-13T12:15:18;6.80;;;6.30;;
37115;SDS011;23025;41.996;23.098;2023-03-13T12:17:47;10.80;;;10.30;;
37115;SDS011;23025;41.996;23.098;2023-03-13T12:20:16;5.97;;;5.60;;
37115;SDS011;23025;41.996;23.098;2023-03-13T12:22:47;5.13;;;4.82;;
37115;SDS011;23025;41.996;23.098;2023-03-13T12:25:18;7.07;;;6.78;;
37115;SDS011;23025;41.996;23.098;2023-03-13T12:27:46;6.32;;;5.88;;
37115;SDS011;23025;41.996;23.098;2023-03-13T12:30:18;4.60;;;4.40;;
37115;SDS011;23025;41.996;23.098;2023-03-13T12:32:48;5.70;;;5.40;;
37115;SDS011;23025;41.996;23.098;2023-03-13T12:35:17;6.05;;;4.57;;
37115;SDS011;23025;41.996;23.098;2023-03-13T12:37:47;5.38;;;4.97;;
37115;SDS011;23025;41.996;23.098;2023-03-13T12:40:18;5.60;;;5.28;;
37115;SDS011;23025;41.996;23.098;2023-03-13T12:42:46;10.02;;;9.63;;
37115;SDS011;23025;41.996;23.098;2023-03-13T12:45:16;5.57;;;5.20;;
37115;SDS011;23025;41.996;23.098;2023-03-13T12:50:27;3.55;;;3.35;;
37115;SDS011;23025;41.996;23.098;2023-03-13T12:55:57;4.95;;;4.75;;
37115;SDS011;23025;41.996;23.098;2023-03-13T12:58:29;3.70;;;3.50;;
37115;SDS011;23025;41.996;23.098;2023-03-13T13:01:03;4.25;;;4.03;;
37115;SDS011;23025;41.996;23.098;2023-03-13T13:03:32;6.45;;;6.03;;
37115;SDS011;23025;41.996;23.098;2023-03-13T13:06:07;4.22;;;4.00;;
37115;SDS011;23025;41.996;23.098;2023-03-13T13:08:38;6.10;;;5.78;;
37115;SDS011;23025;41.996;23.098;2023-03-13T13:13:47;3.05;;;2.92;;
37115;SDS011;23025;41.996;23.098;2023-03-13T13:16:14;4.55;;;4.35;;
37115;SDS011;23025;41.996;23.098;2023-03-13T13:18:43;5.72;;;5.22;;
37115;SDS011;23025;41.996;23.098;2023-03-13T13:21:19;6.32;;;6.07;;
37115;SDS011;23025;41.996;23.098;2023-03-13T13:23:47;3.80;;;3.60;;
37115;SDS011;23025;41.996;23.098;2023-03-13T13:31:57;8.65;;;8.25;;
37115;SDS011;23025;41.996;23.098;2023-03-13T13:37:23;5.72;;;5.43;;
37115;SDS011;23025;41.996;23.098;2023-03-13T13:39:51;3.45;;;3.25;;
37115;SDS011;23025;41.996;23.098;2023-03-13T13:42:37;4.35;;;4.13;;
37115;SDS011;23025;41.996;23.098;2023-03-13T13:45:19;7.15;;;6.75;;
37115;SDS011;23025;41.996;23.098;2023-03-13T13:47:48;4.43;;;4.22;;
37115;SDS011;23025;41.996;23.098;2023-03-13T13:50:17;4.93;;;4.63;;
37115;SDS011;23025;41.996;23.098;2023-03-13T13:52:43;6.65;;;6.35;;
37115;SDS011;23025;41.996;23.098;2023-03-13T13:55:31;7.82;;;7.50;;
37115;SDS011;23025;41.996;23.098;2023-03-13T13:57:58;4.70;;;4.40;;
37115;SDS011;23025;41.996;23.098;2023-03-13T14:00:25;4.90;;;4.70;;
37115;SDS011;23025;41.996;23.098;2023-03-13T14:02:54;11.65;;;9.50;;
37115;SDS011;23025;41.996;23.098;2023-03-13T14:05:23;8.05;;;7.53;;
37115;SDS011;23025;41.996;23.098;2023-03-13T14:07:52;11.48;;;9.13;;
37115;SDS011;23025;41.996;23.098;2023-03-13T14:10:25;7.28;;;6.88;;
37115;SDS011;23025;41.996;23.098;2023-03-13T14:12:54;6.95;;;6.65;;
37115;SDS011;23025;41.996;23.098;2023-03-13T14:15:21;5.53;;;5.18;;
37115;SDS011;23025;41.996;23.098;2023-03-13T14:17:49;3.58;;;3.35;;
37115;SDS011;23025;41.996;23.098;2023-03-13T14:20:19;8.20;;;7.50;;
37115;SDS011;23025;41.996;23.098;2023-03-13T14:22:47;7.07;;;6.78;;
37115;SDS011;23025;41.996;23.098;2023-03-13T14:25:14;4.78;;;4.55;;
37115;SDS011;23025;41.996;23.098;2023-03-13T14:27:43;6.45;;;6.13;;
37115;SDS011;23025;41.996;23.098;2023-03-13T14:30:11;6.38;;;6.05;;
37115;SDS011;23025;41.996;23.098;2023-03-13T14:32:39;4.53;;;4.32;;
37115;SDS011;23025;41.996;23.098;2023-03-13T14:35:07;3.60;;;3.08;;
37115;SDS011;23025;41.996;23.098;2023-03-13T14:37:36;7.03;;;6.53;;
37115;SDS011;23025;41.996;23.098;2023-03-13T14:40:05;6.95;;;6.63;;
37115;SDS011;23025;41.996;23.098;2023-03-13T14:42:37;3.97;;;3.78;;
37115;SDS011;23025;41.996;23.098;2023-03-13T14:45:11;6.03;;;5.70;;
37115;SDS011;23025;41.996;23.098;2023-03-13T14:47:38;6.25;;;5.93;;
37115;SDS011;23025;41.996;23.098;2023-03-13T14:50:08;9.05;;;8.65;;
37115;SDS011;23025;41.996;23.098;2023-03-13T14:52:42;6.47;;;6.07;;
37115;SDS011;23025;41.996;23.098;2023-03-13T14:55:24;7.45;;;7.13;;
37115;SDS011;23025;41.996;23.098;2023-03-13T14:57:54;8.27;;;7.95;;